Ilam, Ilam Airport (OICI)

NameIlam Airport
CityIlam
CountryIran (Islamic Republic of)
ICAOOICI
IATAIIL
Altitude1342 m
CoordinatesGoogle Map
Live Air TrafficLiveATC.net
METAROICI 171200Z 26010KT 9999 FEW040 SCT100 28/M00 Q1024 A3026
2019-10-17 12:00:00 Wind: West-Southwest (260°) 5.14 m/s - Visibility: > 10000 m - Temperature: 28 °C - Dew point: -0 °C - Humidity: 16.1% - Pressure: 1024.72 hPa

Sorry, no flights used the airport in this database.